Time;durP1;ratioP1;P1;durP2;ratioP2;P2;SDS_P1;SDS_P2;PMS_P1;PMS_P2;Temp;Humidity;BMP_temperature;BMP_pressure;BME280_temperature;BME280_humidity;BME280_pressure;Samples;Min_cycle;Max_cycle;Signal;HPM_P1;HPM_P2
2022/04/22 00:00:13;;;;;;;5.90;3.47;;;;;;;;;;4987089;28;20695;-54
2022/04/22 00:02:39;;;;;;;4.37;3.50;;;;;;;;;;4945561;28;20413;-54
2022/04/22 00:05:05;;;;;;;4.57;3.50;;;;;;;;;;4994409;28;20947;-54
2022/04/22 00:07:31;;;;;;;4.90;4.30;;;;;;;;;;4986353;28;20461;-53
2022/04/22 00:09:57;;;;;;;5.63;4.03;;;;;;;;;;4993142;28;20441;-52
2022/04/22 00:12:23;;;;;;;9.87;3.17;;;;;;;;;;4968261;28;20437;-53
2022/04/22 00:14:48;;;;;;;4.50;3.70;;;;;;;;;;4980550;28;20454;-53
2022/04/22 00:17:15;;;;;;;3.90;3.20;;;;;;;;;;4982500;28;20436;-53
2022/04/22 00:19:41;;;;;;;4.50;3.47;;;;;;;;;;4982370;28;20568;-53
2022/04/22 00:22:07;;;;;;;5.00;4.50;;;;;;;;;;4983330;28;20603;-53
2022/04/22 00:24:32;;;;;;;6.67;5.80;;;;;;;;;;4975765;28;20457;-53
2022/04/22 00:26:58;;;;;;;7.53;5.17;;;;;;;;;;4993182;28;20592;-53
2022/04/22 00:29:24;;;;;;;5.37;4.57;;;;;;;;;;4987013;28;20589;-53
2022/04/22 00:31:51;;;;;;;6.80;6.10;;;;;;;;;;4984835;28;20171;-53
2022/04/22 00:34:17;;;;;;;4.67;4.27;;;;;;;;;;4951631;28;21218;-53
2022/04/22 00:36:43;;;;;;;6.07;4.47;;;;;;;;;;4995267;28;20527;-52
2022/04/22 00:39:09;;;;;;;4.57;3.87;;;;;;;;;;4992255;28;20469;-53
2022/04/22 00:41:35;;;;;;;7.43;4.83;;;;;;;;;;4989107;28;20440;-54
2022/04/22 00:44:01;;;;;;;5.17;4.30;;;;;;;;;;4961860;28;20485;-53
2022/04/22 00:46:27;;;;;;;5.73;4.20;;;;;;;;;;4988380;28;20182;-53
2022/04/22 00:48:53;;;;;;;6.57;5.03;;;;;;;;;;4973118;28;20981;-52
2022/04/22 00:51:21;;;;;;;6.77;3.97;;;;;;;;;;4994414;28;20529;-54
2022/04/22 00:53:47;;;;;;;8.47;4.00;;;;;;;;;;4995485;28;20445;-53
2022/04/22 00:56:13;;;;;;;4.00;3.40;;;;;;;;;;4989327;28;20962;-54
2022/04/22 00:58:40;;;;;;;7.37;4.70;;;;;;;;;;4989734;28;20491;-53
2022/04/22 01:01:06;;;;;;;7.07;5.00;;;;;;;;;;4997928;28;20437;-55
2022/04/22 01:03:32;;;;;;;6.90;4.80;;;;;;;;;;4943979;28;20464;-52
2022/04/22 01:11:32;;;;;;;6.00;4.50;;;;;;;;;;4983431;28;20461;-53
2022/04/22 01:13:58;;;;;;;5.53;4.10;;;;;;;;;;4985045;28;20456;-53
2022/04/22 01:16:25;;;;;;;6.80;5.93;;;;;;;;;;4979721;28;20491;-53
2022/04/22 01:18:51;;;;;;;6.53;5.90;;;;;;;;;;4988159;28;20478;-53
2022/04/22 01:21:17;;;;;;;3.70;3.30;;;;;;;;;;4968434;28;20970;-53
2022/04/22 01:23:43;;;;;;;5.70;4.30;;;;;;;;;;4992380;28;20477;-54
2022/04/22 01:26:09;;;;;;;5.20;4.30;;;;;;;;;;4963892;28;20437;-55
2022/04/22 01:28:35;;;;;;;6.17;4.33;;;;;;;;;;4984254;28;20191;-53
2022/04/22 01:31:01;;;;;;;7.30;4.27;;;;;;;;;;4988321;28;20698;-53
2022/04/22 01:33:27;;;;;;;6.17;4.23;;;;;;;;;;4988952;28;21368;-54
2022/04/22 01:35:53;;;;;;;6.03;4.33;;;;;;;;;;4948888;28;21471;-53
2022/04/22 01:38:19;;;;;;;5.57;3.97;;;;;;;;;;4990926;28;20537;-55
2022/04/22 01:40:45;;;;;;;5.00;4.23;;;;;;;;;;4988404;28;21234;-53
2022/04/22 01:43:11;;;;;;;5.53;5.00;;;;;;;;;;4990329;28;20643;-53
2022/04/22 01:45:37;;;;;;;4.63;4.03;;;;;;;;;;4989417;28;20441;-54
2022/04/22 01:48:03;;;;;;;6.73;4.13;;;;;;;;;;4989032;28;20858;-54
2022/04/22 01:50:29;;;;;;;5.30;4.10;;;;;;;;;;4986443;28;20452;-53
2022/04/22 01:52:55;;;;;;;5.93;4.17;;;;;;;;;;4988666;28;20442;-53
2022/04/22 01:55:22;;;;;;;5.73;5.00;;;;;;;;;;4982752;28;20433;-54
2022/04/22 01:57:48;;;;;;;7.33;4.80;;;;;;;;;;4975972;28;20536;-54
2022/04/22 02:00:14;;;;;;;6.90;4.70;;;;;;;;;;4989765;28;20585;-54
2022/04/22 02:02:40;;;;;;;8.13;4.33;;;;;;;;;;4985194;28;20529;-54
2022/04/22 02:05:06;;;;;;;7.83;5.97;;;;;;;;;;4989226;28;20440;-54
2022/04/22 02:07:33;;;;;;;10.30;4.53;;;;;;;;;;4946943;28;20461;-54
2022/04/22 02:09:59;;;;;;;5.67;4.70;;;;;;;;;;4992324;28;20429;-53
2022/04/22 02:12:25;;;;;;;4.80;3.83;;;;;;;;;;4986091;28;20523;-53
2022/04/22 02:14:51;;;;;;;5.70;4.60;;;;;;;;;;4992475;28;20516;-52
2022/04/22 02:17:18;;;;;;;5.50;4.40;;;;;;;;;;4965861;28;20487;-54
2022/04/22 02:19:43;;;;;;;6.30;4.63;;;;;;;;;;4990565;28;20897;-53
2022/04/22 02:22:09;;;;;;;6.03;4.20;;;;;;;;;;4985027;28;20437;-54
2022/04/22 02:24:35;;;;;;;7.40;5.60;;;;;;;;;;4989866;28;20282;-53
2022/04/22 02:29:46;;;;;;;10.73;4.47;;;;;;;;;;4958069;28;20371;-54
2022/04/22 02:32:12;;;;;;;4.77;3.73;;;;;;;;;;4988165;28;20560;-54
2022/04/22 02:34:38;;;;;;;8.60;5.43;;;;;;;;;;4967371;28;20441;-53
2022/04/22 02:37:04;;;;;;;7.00;5.77;;;;;;;;;;4983782;28;20523;-53
2022/04/22 02:39:30;;;;;;;6.57;4.97;;;;;;;;;;4959278;28;20982;-54
2022/04/22 02:47:25;;;;;;;6.30;5.10;;;;;;;;;;4972264;28;20519;-53
2022/04/22 02:49:51;;;;;;;5.73;5.17;;;;;;;;;;4993015;28;20453;-52
2022/04/22 02:52:17;;;;;;;5.80;5.07;;;;;;;;;;4984698;28;20440;-53
2022/04/22 02:54:43;;;;;;;7.00;5.17;;;;;;;;;;4994464;28;20441;-52
2022/04/22 02:57:09;;;;;;;5.23;4.03;;;;;;;;;;4966295;28;20456;-53
2022/04/22 02:59:37;;;;;;;5.83;5.00;;;;;;;;;;4993358;28;20360;-54
2022/04/22 03:02:03;;;;;;;9.90;5.73;;;;;;;;;;4973004;28;20946;-53
2022/04/22 03:04:29;;;;;;;6.33;5.67;;;;;;;;;;4992057;28;20893;-53
2022/04/22 03:06:56;;;;;;;6.53;5.47;;;;;;;;;;4964680;28;20464;-52
2022/04/22 03:09:22;;;;;;;6.87;4.93;;;;;;;;;;4997916;28;20460;-53
2022/04/22 03:11:49;;;;;;;9.03;5.83;;;;;;;;;;4944426;28;20441;-53
2022/04/22 03:14:15;;;;;;;8.73;6.33;;;;;;;;;;4989457;28;20455;-53
2022/04/22 03:16:42;;;;;;;5.70;5.20;;;;;;;;;;4998339;28;20425;-52
2022/04/22 03:19:08;;;;;;;7.80;5.30;;;;;;;;;;4989265;28;20520;-51
2022/04/22 03:21:34;;;;;;;5.80;4.53;;;;;;;;;;4986665;28;20435;-52
2022/04/22 03:24:00;;;;;;;6.73;4.97;;;;;;;;;;4993091;28;20444;-51
2022/04/22 03:26:26;;;;;;;6.80;5.43;;;;;;;;;;4959859;28;20449;-55
2022/04/22 03:28:55;;;;;;;8.30;6.10;;;;;;;;;;4995047;28;20425;-52
2022/04/22 03:31:21;;;;;;;6.73;5.90;;;;;;;;;;4969681;28;20703;-53
2022/04/22 03:33:48;;;;;;;8.40;7.50;;;;;;;;;;4990110;28;20434;-53
2022/04/22 03:36:14;;;;;;;6.20;4.90;;;;;;;;;;4988792;28;20440;-53
2022/04/22 03:38:40;;;;;;;6.63;4.70;;;;;;;;;;4991519;28;20492;-54
2022/04/22 03:41:06;;;;;;;7.80;5.67;;;;;;;;;;4940687;28;20797;-53
2022/04/22 03:43:32;;;;;;;10.30;7.03;;;;;;;;;;4987703;28;20988;-54
2022/04/22 03:45:58;;;;;;;8.03;6.50;;;;;;;;;;4987332;28;20451;-52
2022/04/22 03:48:24;;;;;;;10.53;8.73;;;;;;;;;;4990846;28;20433;-52
2022/04/22 03:50:50;;;;;;;9.07;7.33;;;;;;;;;;4981533;28;20884;-54
2022/04/22 03:53:16;;;;;;;9.80;7.20;;;;;;;;;;4986486;28;20436;-54
2022/04/22 03:55:43;;;;;;;8.50;6.57;;;;;;;;;;4986018;28;20437;-54
2022/04/22 03:58:12;;;;;;;9.00;7.93;;;;;;;;;;4992902;28;20440;-53
2022/04/22 04:00:42;;;;;;;13.07;8.43;;;;;;;;;;4982704;28;20433;-54
2022/04/22 04:03:09;;;;;;;10.30;6.67;;;;;;;;;;4988547;28;20878;-53
2022/04/22 04:05:35;;;;;;;10.50;8.02;;;;;;;;;;4966387;28;20940;-53
2022/04/22 04:08:01;;;;;;;15.20;8.37;;;;;;;;;;4987079;28;20216;-54
2022/04/22 04:15:59;;;;;;;7.60;6.77;;;;;;;;;;4944287;28;21581;-52
2022/04/22 04:18:34;;;;;;;12.07;7.87;;;;;;;;;;4991834;28;20468;-52
2022/04/22 04:23:45;;;;;;;12.67;8.80;;;;;;;;;;4986801;28;20515;-53
2022/04/22 04:26:11;;;;;;;19.30;8.90;;;;;;;;;;4979407;28;20837;-53
2022/04/22 04:28:37;;;;;;;10.73;7.60;;;;;;;;;;4989221;28;20453;-52
2022/04/22 04:31:03;;;;;;;11.77;7.87;;;;;;;;;;4984312;28;20525;-58
2022/04/22 04:33:29;;;;;;;12.40;9.00;;;;;;;;;;4986861;28;20433;-53
2022/04/22 04:35:55;;;;;;;13.80;8.20;;;;;;;;;;4981058;28;20422;-52
2022/04/22 04:38:22;;;;;;;13.33;8.60;;;;;;;;;;4978178;28;20469;-53
2022/04/22 04:40:48;;;;;;;10.87;7.70;;;;;;;;;;4960406;28;20602;-53
2022/04/22 04:43:14;;;;;;;14.67;9.40;;;;;;;;;;4981608;28;20435;-53
2022/04/22 04:45:40;;;;;;;18.00;8.10;;;;;;;;;;4944661;28;20904;-54
2022/04/22 04:48:07;;;;;;;12.87;9.50;;;;;;;;;;4987527;28;20428;-54
2022/04/22 04:50:33;;;;;;;17.03;9.53;;;;;;;;;;4989777;28;20440;-53
2022/04/22 04:52:59;;;;;;;15.33;10.03;;;;;;;;;;4967052;28;20927;-52
2022/04/22 04:55:25;;;;;;;18.43;10.60;;;;;;;;;;4992397;28;21343;-56
2022/04/22 04:57:51;;;;;;;15.80;10.10;;;;;;;;;;4982682;28;20469;-53
2022/04/22 05:00:18;;;;;;;11.13;8.33;;;;;;;;;;4989992;28;20515;-53
2022/04/22 05:02:45;;;;;;;16.20;8.83;;;;;;;;;;4982328;28;20433;-52
2022/04/22 05:05:12;;;;;;;14.53;9.60;;;;;;;;;;4982047;28;20450;-52
2022/04/22 05:07:48;;;;;;;16.00;8.43;;;;;;;;;;4983798;28;20468;-52
2022/04/22 05:10:14;;;;;;;12.27;8.03;;;;;;;;;;4988191;28;20440;-52
2022/04/22 05:12:41;;;;;;;12.53;8.40;;;;;;;;;;4959216;28;20528;-52
2022/04/22 05:15:08;;;;;;;11.70;8.37;;;;;;;;;;4985518;28;21001;-53
2022/04/22 05:17:34;;;;;;;12.90;9.10;;;;;;;;;;4939648;28;20525;-54
2022/04/22 05:20:00;;;;;;;15.37;9.57;;;;;;;;;;4990633;28;20971;-53
2022/04/22 05:22:26;;;;;;;12.73;8.60;;;;;;;;;;4982447;28;20504;-54
2022/04/22 05:24:52;;;;;;;13.10;9.30;;;;;;;;;;4985842;28;20452;-53
2022/04/22 05:27:18;;;;;;;14.27;10.20;;;;;;;;;;4987247;28;20444;-52
2022/04/22 05:32:40;;;;;;;10.77;7.63;;;;;;;;;;4945818;28;20529;-54
2022/04/22 05:35:07;;;;;;;15.63;10.30;;;;;;;;;;4986240;28;22067;-53
2022/04/22 05:37:49;;;;;;;12.63;8.57;;;;;;;;;;4986004;28;20453;-55
2022/04/22 05:40:16;;;;;;;16.80;10.30;;;;;;;;;;4983264;28;20477;-53
2022/04/22 05:42:42;;;;;;;21.77;11.30;;;;;;;;;;4959329;28;20473;-53
2022/04/22 05:45:09;;;;;;;17.50;11.83;;;;;;;;;;4992384;28;20487;-53
2022/04/22 05:47:35;;;;;;;15.37;10.43;;;;;;;;;;4945660;28;21000;-53
2022/04/22 05:50:01;;;;;;;18.20;13.03;;;;;;;;;;4995639;28;20965;-54
2022/04/22 05:52:27;;;;;;;23.73;13.17;;;;;;;;;;4965038;28;20449;-53
2022/04/22 05:54:54;;;;;;;20.10;13.53;;;;;;;;;;4996928;28;20522;-53
2022/04/22 05:57:20;;;;;;;19.57;13.33;;;;;;;;;;4982325;28;20555;-53
2022/04/22 05:59:48;;;;;;;20.87;14.90;;;;;;;;;;4984740;28;20838;-52
2022/04/22 06:02:14;;;;;;;18.57;14.20;;;;;;;;;;4982650;28;20540;-52
2022/04/22 06:04:40;;;;;;;20.63;14.17;;;;;;;;;;4987356;28;20532;-52
2022/04/22 06:07:06;;;;;;;19.97;14.90;;;;;;;;;;4985283;28;20189;-52
2022/04/22 06:12:17;;;;;;;21.50;14.10;;;;;;;;;;4965144;28;20455;-52
2022/04/22 06:14:44;;;;;;;24.70;15.87;;;;;;;;;;4990490;28;21409;-52
2022/04/22 06:17:10;;;;;;;21.20;14.13;;;;;;;;;;4981191;28;20765;-53
2022/04/22 06:19:36;;;;;;;18.27;12.47;;;;;;;;;;4988983;28;20488;-52
2022/04/22 06:22:02;;;;;;;18.40;13.80;;;;;;;;;;4944546;28;20194;-51
2022/04/22 06:24:28;;;;;;;21.30;14.43;;;;;;;;;;4988251;28;20454;-52
2022/04/22 06:26:54;;;;;;;18.73;13.53;;;;;;;;;;4966315;28;20449;-52
2022/04/22 06:29:20;;;;;;;17.07;13.57;;;;;;;;;;4985185;28;20213;-53
2022/04/22 06:31:46;;;;;;;24.80;16.67;;;;;;;;;;4960079;28;20476;-52
2022/04/22 06:34:12;;;;;;;22.17;14.40;;;;;;;;;;4980064;28;20449;-53
2022/04/22 06:36:38;;;;;;;23.40;14.40;;;;;;;;;;4982464;28;20445;-53
2022/04/22 06:39:04;;;;;;;23.63;15.90;;;;;;;;;;4987792;28;20517;-52
2022/04/22 06:47:00;;;;;;;25.27;16.67;;;;;;;;;;4970666;28;20519;-53
2022/04/22 06:49:26;;;;;;;22.00;16.60;;;;;;;;;;4962610;28;20464;-53
2022/04/22 06:51:52;;;;;;;22.93;15.97;;;;;;;;;;4979758;28;20437;-54
2022/04/22 06:54:18;;;;;;;20.90;15.40;;;;;;;;;;4938924;28;20447;-53
2022/04/22 06:56:45;;;;;;;23.80;16.37;;;;;;;;;;4982993;28;20437;-52
2022/04/22 06:59:11;;;;;;;21.10;15.50;;;;;;;;;;4977014;28;20555;-53
2022/04/22 07:01:37;;;;;;;18.30;14.03;;;;;;;;;;5003824;28;20468;-53
2022/04/22 07:04:03;;;;;;;26.73;15.97;;;;;;;;;;4992082;28;20540;-53
2022/04/22 07:06:29;;;;;;;22.27;16.13;;;;;;;;;;4962018;28;20467;-53
2022/04/22 07:08:56;;;;;;;23.60;15.50;;;;;;;;;;4986560;28;20512;-52
2022/04/22 07:11:25;;;;;;;26.20;17.90;;;;;;;;;;4947252;28;20766;-52
2022/04/22 07:13:52;;;;;;;25.23;16.87;;;;;;;;;;4981569;28;20819;-53
2022/04/22 07:16:18;;;;;;;23.93;15.87;;;;;;;;;;4974108;28;21114;-52
2022/04/22 07:18:44;;;;;;;21.97;15.33;;;;;;;;;;4986078;28;20480;-54
2022/04/22 07:21:10;;;;;;;21.77;15.67;;;;;;;;;;4964169;28;20979;-55
2022/04/22 07:23:36;;;;;;;21.80;16.70;;;;;;;;;;4988252;28;20440;-51
2022/04/22 07:26:03;;;;;;;22.87;16.03;;;;;;;;;;4947385;28;21177;-52
2022/04/22 07:28:29;;;;;;;26.07;16.03;;;;;;;;;;4994841;28;20441;-52
2022/04/22 07:30:56;;;;;;;22.87;15.00;;;;;;;;;;4961988;28;20467;-53
2022/04/22 07:33:22;;;;;;;25.00;17.50;;;;;;;;;;4987244;28;20472;-53
2022/04/22 07:35:48;;;;;;;20.23;14.13;;;;;;;;;;4985902;28;20536;-52
2022/04/22 07:38:14;;;;;;;21.00;14.33;;;;;;;;;;4985484;28;20437;-52
2022/04/22 07:40:43;;;;;;;23.53;16.87;;;;;;;;;;4972035;28;20448;-53
2022/04/22 07:48:39;;;;;;;20.30;14.50;;;;;;;;;;5000648;28;20527;-56
2022/04/22 07:51:05;;;;;;;21.13;14.90;;;;;;;;;;4963104;28;20460;-58
2022/04/22 07:53:30;;;;;;;22.40;15.37;;;;;;;;;;4989973;28;20477;-51
2022/04/22 07:55:57;;;;;;;23.37;17.77;;;;;;;;;;4949406;28;21994;-53
2022/04/22 07:58:23;;;;;;;26.53;16.30;;;;;;;;;;4984256;28;20435;-53
2022/04/22 08:00:49;;;;;;;20.47;16.13;;;;;;;;;;4972075;28;20826;-56
2022/04/22 08:03:17;;;;;;;25.90;17.07;;;;;;;;;;4988213;28;20539;-54
2022/04/22 08:05:44;;;;;;;18.57;15.93;;;;;;;;;;4985575;28;20603;-51
2022/04/22 08:08:10;;;;;;;24.13;16.90;;;;;;;;;;4979940;28;20433;-53
2022/04/22 08:10:36;;;;;;;20.13;16.20;;;;;;;;;;4966764;28;21391;-51
2022/04/22 08:13:03;;;;;;;23.53;18.10;;;;;;;;;;4972357;28;20894;-52
2022/04/22 08:15:30;;;;;;;18.27;14.47;;;;;;;;;;4977664;28;20785;-54
2022/04/22 08:17:55;;;;;;;26.47;15.10;;;;;;;;;;4981276;28;20547;-53
2022/04/22 08:20:22;;;;;;;21.50;13.90;;;;;;;;;;4976281;28;20515;-53
2022/04/22 08:22:48;;;;;;;19.03;15.70;;;;;;;;;;4960146;28;20264;-52
2022/04/22 08:25:14;;;;;;;22.17;15.90;;;;;;;;;;4986653;28;20434;-53
2022/04/22 08:27:40;;;;;;;18.37;14.40;;;;;;;;;;4963822;28;20518;-53
2022/04/22 08:30:07;;;;;;;19.87;16.00;;;;;;;;;;4986682;28;20448;-53
2022/04/22 08:32:33;;;;;;;20.57;15.93;;;;;;;;;;4946441;28;20484;-51
2022/04/22 08:34:59;;;;;;;20.60;14.93;;;;;;;;;;4992521;28;20472;-53
2022/04/22 08:37:25;;;;;;;20.13;13.87;;;;;;;;;;4984823;28;20445;-52
2022/04/22 08:39:51;;;;;;;18.93;14.47;;;;;;;;;;4993086;28;20480;-51
2022/04/22 08:42:16;;;;;;;17.50;13.90;;;;;;;;;;4963871;28;20441;-52
2022/04/22 08:44:42;;;;;;;19.30;14.40;;;;;;;;;;5000125;28;20348;-53
2022/04/22 08:49:59;;;;;;;19.70;13.27;;;;;;;;;;4988701;28;20443;-53
2022/04/22 08:52:25;;;;;;;17.70;13.13;;;;;;;;;;4995076;28;20536;-52
2022/04/22 08:54:51;;;;;;;18.20;14.00;;;;;;;;;;4991784;28;20440;-53
2022/04/22 08:57:18;;;;;;;18.97;13.33;;;;;;;;;;4968085;28;20483;-52
2022/04/22 08:59:43;;;;;;;16.97;13.00;;;;;;;;;;5004776;28;20515;-52
2022/04/22 09:02:09;;;;;;;20.30;13.60;;;;;;;;;;4943823;28;22462;-55
2022/04/22 09:04:35;;;;;;;16.67;12.60;;;;;;;;;;4993948;28;20336;-51
2022/04/22 09:07:01;;;;;;;17.07;14.23;;;;;;;;;;4950698;28;20191;-54
2022/04/22 09:09:27;;;;;;;15.97;11.53;;;;;;;;;;4985293;28;20484;-53
2022/04/22 09:11:54;;;;;;;16.63;13.10;;;;;;;;;;4995103;28;20440;-53
2022/04/22 09:14:21;;;;;;;19.23;12.93;;;;;;;;;;4983067;28;20506;-52
2022/04/22 09:16:47;;;;;;;17.97;14.00;;;;;;;;;;4971876;28;20464;-52
2022/04/22 09:19:13;;;;;;;17.60;13.37;;;;;;;;;;4987432;28;20468;-53
2022/04/22 09:21:39;;;;;;;16.93;12.90;;;;;;;;;;4968189;28;20473;-54
2022/04/22 09:24:13;;;;;;;17.80;13.30;;;;;;;;;;4988096;28;20588;-54
2022/04/22 09:26:39;;;;;;;17.10;14.40;;;;;;;;;;4976966;28;21146;-52
2022/04/22 09:29:06;;;;;;;16.20;12.57;;;;;;;;;;4991492;28;20947;-53
2022/04/22 09:31:47;;;;;;;20.70;13.90;;;;;;;;;;4969519;28;20524;-54
2022/04/22 09:34:13;;;;;;;16.03;12.10;;;;;;;;;;4986804;28;20440;-53
2022/04/22 09:45:00;;;;;;;16.43;14.50;;;;;;;;;;4981408;28;21060;-51
2022/04/22 09:47:32;;;;;;;26.40;13.27;;;;;;;;;;4965269;28;20453;-54
2022/04/22 09:49:59;;;;;;;20.53;13.43;;;;;;;;;;4991780;28;20452;-52
2022/04/22 09:52:25;;;;;;;16.53;13.60;;;;;;;;;;4986386;28;20449;-53
2022/04/22 09:54:55;;;;;;;15.60;13.10;;;;;;;;;;4981823;28;21330;-53
2022/04/22 09:57:21;;;;;;;18.10;13.60;;;;;;;;;;4968975;28;20439;-53
2022/04/22 09:59:47;;;;;;;16.53;12.57;;;;;;;;;;4990691;28;20477;-53
2022/04/22 10:02:14;;;;;;;14.03;11.73;;;;;;;;;;4981466;28;20524;-52
2022/04/22 10:04:41;;;;;;;14.27;12.77;;;;;;;;;;4995386;28;25479;-52
2022/04/22 10:07:08;;;;;;;17.60;12.13;;;;;;;;;;4974438;28;20484;-53
2022/04/22 10:09:34;;;;;;;14.30;12.30;;;;;;;;;;4999386;28;21219;-54
2022/04/22 10:12:00;;;;;;;17.27;12.80;;;;;;;;;;4949938;28;21485;-54
2022/04/22 10:14:35;;;;;;;15.60;11.67;;;;;;;;;;4983706;28;20188;-54
2022/04/22 10:17:02;;;;;;;15.10;13.10;;;;;;;;;;4978846;28;20441;-53
2022/04/22 10:19:28;;;;;;;16.20;12.33;;;;;;;;;;4987898;28;20477;-53
2022/04/22 10:21:54;;;;;;;13.70;11.20;;;;;;;;;;4994629;28;20816;-51
2022/04/22 10:24:21;;;;;;;13.20;11.07;;;;;;;;;;4979970;28;20670;-52
2022/04/22 10:26:47;;;;;;;16.20;11.60;;;;;;;;;;4964292;28;20434;-53
2022/04/22 10:29:13;;;;;;;13.87;11.37;;;;;;;;;;4979496;28;20818;-55
2022/04/22 10:31:39;;;;;;;19.00;10.80;;;;;;;;;;4966934;28;20437;-53
2022/04/22 10:34:06;;;;;;;14.37;11.40;;;;;;;;;;4984241;28;20463;-53
2022/04/22 10:36:32;;;;;;;12.90;11.33;;;;;;;;;;4973142;28;20434;-54
2022/04/22 10:38:58;;;;;;;14.37;11.50;;;;;;;;;;4987869;28;20491;-54
2022/04/22 10:41:24;;;;;;;12.30;11.10;;;;;;;;;;4967867;28;20965;-53
2022/04/22 10:49:21;;;;;;;11.93;9.73;;;;;;;;;;4992400;28;20472;-55
2022/04/22 10:51:57;;;;;;;14.53;12.20;;;;;;;;;;4983911;28;20437;-54
2022/04/22 10:54:43;;;;;;;14.87;12.27;;;;;;;;;;4992814;28;20421;-54
2022/04/22 10:57:19;;;;;;;15.37;13.73;;;;;;;;;;4991242;28;20428;-53
2022/04/22 10:59:45;;;;;;;14.00;12.30;;;;;;;;;;4995706;28;20472;-53
2022/04/22 11:02:28;;;;;;;15.23;12.90;;;;;;;;;;4970896;28;20424;-57
2022/04/22 11:05:13;;;;;;;15.77;13.27;;;;;;;;;;4986176;28;20516;-53
2022/04/22 11:07:56;;;;;;;20.10;13.57;;;;;;;;;;4980410;28;21416;-53
2022/04/22 11:10:22;;;;;;;14.07;11.00;;;;;;;;;;4976275;28;20452;-59
2022/04/22 11:12:51;;;;;;;12.30;11.00;;;;;;;;;;4974435;28;21025;-55
2022/04/22 11:15:36;;;;;;;14.17;12.53;;;;;;;;;;4963611;28;20501;-54
2022/04/22 11:18:02;;;;;;;13.50;12.07;;;;;;;;;;4974134;28;20531;-55
2022/04/22 11:20:29;;;;;;;18.40;12.30;;;;;;;;;;4941143;28;20493;-53
2022/04/22 11:22:58;;;;;;;15.07;12.57;;;;;;;;;;4985888;28;20190;-54
2022/04/22 11:25:25;;;;;;;13.60;11.37;;;;;;;;;;4981438;28;20429;-55
2022/04/22 11:27:51;;;;;;;16.30;12.53;;;;;;;;;;4985456;28;20433;-54
2022/04/22 11:30:17;;;;;;;13.50;11.30;;;;;;;;;;4990908;28;20957;-53
2022/04/22 11:32:43;;;;;;;13.27;11.80;;;;;;;;;;4979571;28;20636;-53
2022/04/22 11:35:15;;;;;;;13.07;11.30;;;;;;;;;;4993040;28;20721;-53
2022/04/22 11:37:41;;;;;;;13.23;11.07;;;;;;;;;;4972099;28;20438;-54
2022/04/22 11:40:08;;;;;;;15.00;13.10;;;;;;;;;;4972257;28;20468;-54
2022/04/22 11:42:38;;;;;;;14.77;13.27;;;;;;;;;;4982962;28;20476;-53
2022/04/22 11:45:04;;;;;;;13.43;12.03;;;;;;;;;;4978334;28;20445;-53
2022/04/22 11:47:30;;;;;;;16.00;14.37;;;;;;;;;;4976564;28;20473;-54
2022/04/22 11:49:57;;;;;;;16.50;13.50;;;;;;;;;;4972875;28;20456;-53
2022/04/22 11:52:23;;;;;;;12.50;11.30;;;;;;;;;;4944248;28;20527;-54
2022/04/22 11:54:49;;;;;;;13.80;12.33;;;;;;;;;;4985062;28;21246;-53
2022/04/22 11:57:19;;;;;;;13.33;11.80;;;;;;;;;;4957856;28;20541;-54
2022/04/22 12:05:32;;;;;;;12.60;11.30;;;;;;;;;;4985416;28;20562;-55
2022/04/22 12:05:32;;;;;;;15.93;11.93;;;;;;;;;;4974011;28;20503;-54
2022/04/22 12:08:01;;;;;;;11.07;10.00;;;;;;;;;;4996381;28;20524;-55
2022/04/22 12:10:30;;;;;;;14.00;12.57;;;;;;;;;;4965669;28;20440;-55
2022/04/22 12:13:00;;;;;;;13.43;11.90;;;;;;;;;;4975735;28;20563;-54
2022/04/22 12:15:26;;;;;;;13.03;11.57;;;;;;;;;;4960624;28;20449;-55
2022/04/22 12:17:52;;;;;;;13.83;12.47;;;;;;;;;;4988826;28;20515;-56
2022/04/22 12:20:18;;;;;;;13.37;12.17;;;;;;;;;;4976401;28;20561;-54
2022/04/22 12:22:44;;;;;;;10.70;9.70;;;;;;;;;;4983121;28;20185;-54
2022/04/22 12:25:11;;;;;;;12.30;11.00;;;;;;;;;;4958953;28;20445;-56
2022/04/22 12:27:38;;;;;;;14.07;12.67;;;;;;;;;;4960928;28;20650;-55
2022/04/22 12:30:04;;;;;;;12.67;11.37;;;;;;;;;;4986963;28;20952;-54
2022/04/22 12:32:31;;;;;;;12.77;11.57;;;;;;;;;;4984108;28;20444;-54
2022/04/22 12:35:32;;;;;;;14.27;12.40;;;;;;;;;;4988913;28;20448;-53
2022/04/22 12:38:01;;;;;;;12.50;11.30;;;;;;;;;;4992081;28;20981;-54
2022/04/22 12:40:27;;;;;;;15.00;13.50;;;;;;;;;;4974313;28;20472;-55
2022/04/22 12:42:53;;;;;;;14.60;13.20;;;;;;;;;;4978407;28;20444;-55
2022/04/22 12:53:41;;;;;;;13.53;12.23;;;;;;;;;;4980426;28;20822;-55
2022/04/22 12:56:08;;;;;;;12.30;11.10;;;;;;;;;;4937906;28;20544;-54
2022/04/22 12:58:50;;;;;;;12.50;11.20;;;;;;;;;;5003516;28;20456;-54
2022/04/22 13:01:26;;;;;;;12.10;10.90;;;;;;;;;;4977268;28;20517;-54
2022/04/22 13:03:52;;;;;;;13.80;12.53;;;;;;;;;;4985465;28;20425;-55
2022/04/22 13:06:37;;;;;;;13.20;12.00;;;;;;;;;;4982885;28;20461;-55
2022/04/22 13:09:03;;;;;;;13.80;12.40;;;;;;;;;;4989692;28;20214;-54
2022/04/22 13:11:29;;;;;;;12.20;11.00;;;;;;;;;;4979620;28;20864;-54
2022/04/22 13:13:55;;;;;;;13.17;11.97;;;;;;;;;;4987676;28;20304;-54
2022/04/22 13:16:21;;;;;;;11.10;9.90;;;;;;;;;;4959925;28;20953;-54
2022/04/22 13:18:47;;;;;;;12.47;11.17;;;;;;;;;;4991178;28;20291;-53
2022/04/22 13:21:13;;;;;;;11.27;10.07;;;;;;;;;;4970775;28;20961;-56
2022/04/22 13:23:39;;;;;;;11.90;10.70;;;;;;;;;;4979839;28;20162;-54
2022/04/22 13:26:05;;;;;;;12.20;11.00;;;;;;;;;;4959640;28;20937;-54
2022/04/22 13:28:31;;;;;;;12.27;10.90;;;;;;;;;;4988923;28;20442;-53
2022/04/22 13:30:57;;;;;;;11.80;10.60;;;;;;;;;;4946745;28;20456;-54
2022/04/22 13:33:25;;;;;;;14.67;10.83;;;;;;;;;;4990276;28;20498;-54
2022/04/22 13:35:51;;;;;;;10.93;9.83;;;;;;;;;;4965181;28;20512;-54
2022/04/22 13:38:17;;;;;;;11.77;10.60;;;;;;;;;;4989357;28;20892;-54
2022/04/22 13:40:43;;;;;;;13.03;11.83;;;;;;;;;;4974314;28;20309;-54
2022/04/22 13:43:09;;;;;;;12.10;10.90;;;;;;;;;;4951959;28;20225;-54
2022/04/22 13:53:50;;;;;;;13.70;12.40;;;;;;;;;;4958655;28;20473;-54
2022/04/22 13:56:16;;;;;;;13.20;11.90;;;;;;;;;;4978474;28;20476;-54
2022/04/22 13:58:42;;;;;;;12.97;11.67;;;;;;;;;;4981183;28;20962;-54
2022/04/22 14:01:08;;;;;;;14.50;13.10;;;;;;;;;;4982185;28;20461;-54
2022/04/22 14:03:35;;;;;;;11.73;10.63;;;;;;;;;;4971937;28;20484;-53
2022/04/22 14:06:00;;;;;;;12.63;11.33;;;;;;;;;;4944992;28;100595;-55
2022/04/22 14:08:26;;;;;;;11.60;9.47;;;;;;;;;;4976424;28;20651;-52
2022/04/22 14:10:52;;;;;;;16.03;10.40;;;;;;;;;;4974040;28;20178;-54
2022/04/22 14:13:20;;;;;;;10.93;9.83;;;;;;;;;;4977640;28;21116;-55
2022/04/22 14:15:46;;;;;;;13.80;11.40;;;;;;;;;;4954576;28;20449;-53
2022/04/22 14:18:12;;;;;;;11.77;9.80;;;;;;;;;;4987663;28;20448;-54
2022/04/22 14:20:38;;;;;;;13.90;12.17;;;;;;;;;;4979963;28;20485;-54
2022/04/22 14:23:04;;;;;;;16.87;11.83;;;;;;;;;;4986320;28;20438;-55
2022/04/22 14:25:30;;;;;;;12.00;10.70;;;;;;;;;;4954354;28;20507;-55
2022/04/22 14:27:56;;;;;;;12.90;11.60;;;;;;;;;;4962990;28;20446;-56
2022/04/22 14:30:22;;;;;;;11.70;10.40;;;;;;;;;;4966871;28;20587;-55
2022/04/22 14:32:48;;;;;;;12.67;11.40;;;;;;;;;;4998659;28;20513;-55
2022/04/22 14:35:14;;;;;;;12.00;10.80;;;;;;;;;;4943015;28;20479;-54
2022/04/22 14:37:40;;;;;;;13.50;11.27;;;;;;;;;;4981151;28;20239;-54
2022/04/22 14:40:06;;;;;;;12.13;9.70;;;;;;;;;;4958951;28;20548;-54
2022/04/22 14:42:32;;;;;;;11.00;9.47;;;;;;;;;;4971688;28;21270;-54
2022/04/22 14:44:58;;;;;;;10.57;9.57;;;;;;;;;;4954024;28;20957;-55
2022/04/22 14:47:25;;;;;;;11.80;9.73;;;;;;;;;;4975853;28;20472;-56
2022/04/22 14:49:51;;;;;;;11.63;10.30;;;;;;;;;;4982444;28;20441;-55
2022/04/22 14:52:18;;;;;;;10.93;9.90;;;;;;;;;;4987898;28;21022;-54
2022/04/22 14:54:44;;;;;;;11.30;10.00;;;;;;;;;;4965070;28;20488;-54
2022/04/22 14:57:10;;;;;;;11.60;10.50;;;;;;;;;;4983213;28;20438;-53
2022/04/22 14:59:36;;;;;;;10.40;9.30;;;;;;;;;;4974094;28;20505;-54
2022/04/22 15:02:03;;;;;;;11.33;9.97;;;;;;;;;;4980435;28;20823;-54
2022/04/22 15:04:29;;;;;;;11.17;9.37;;;;;;;;;;4933882;28;20591;-55
2022/04/22 15:06:55;;;;;;;12.20;8.57;;;;;;;;;;4986497;28;20523;-55
2022/04/22 15:09:21;;;;;;;10.90;8.77;;;;;;;;;;4979598;28;20175;-54
2022/04/22 15:11:47;;;;;;;10.17;9.17;;;;;;;;;;4986759;28;20449;-55
2022/04/22 15:14:13;;;;;;;10.17;9.17;;;;;;;;;;4980322;28;20511;-55
2022/04/22 15:16:39;;;;;;;10.20;9.10;;;;;;;;;;4983507;28;20461;-55
2022/04/22 15:24:34;;;;;;;9.53;8.57;;;;;;;;;;4953729;28;21142;-55
2022/04/22 15:27:01;;;;;;;10.90;9.23;;;;;;;;;;4979503;28;20989;-55
2022/04/22 15:29:27;;;;;;;12.13;9.33;;;;;;;;;;4955104;28;20502;-55
2022/04/22 15:31:53;;;;;;;9.20;8.00;;;;;;;;;;4975099;28;20495;-55
2022/04/22 15:34:19;;;;;;;11.13;8.30;;;;;;;;;;4956436;28;20452;-55
2022/04/22 15:36:48;;;;;;;8.90;8.00;;;;;;;;;;4984779;28;20449;-56
2022/04/22 15:39:16;;;;;;;10.70;9.60;;;;;;;;;;4944895;28;21393;-56
2022/04/22 15:41:45;;;;;;;11.83;9.13;;;;;;;;;;4987941;28;20445;-56
2022/04/22 15:44:11;;;;;;;11.27;8.60;;;;;;;;;;4981886;28;20528;-55